Tower, Minnesota
Current Conditions -  °F | °C
As of 8:55 AM on Thursday 30 Oct 2014 (Local Time) from KCQM Reporting Station
Overcast Overcast  
Wind Chill: 34°   Ceiling: 3700
Heat Index: 34°   Visibility: 10mi
Dew Point: 32°   Wind: 3mph
Humidity: 93%   Direction: 300°WNW
Pressure: 30.07"   Gusts: NA
Location:  47.81°N, 92.27°W
Report Text: KCQM 301355Z AUTO 30003KT 10SM SCT015 BKN037 OVC110 01/00 A3007 RMK AO2
Loading
Personal Weather Stations






























Interactive Weather Map
Tropical Storm Tracking
New forecast layout! Learn more

10-Day Weather Forecast

Advertisements
Track Severe Weather on mobile